Aeroporto :
LOGIN :

Iscrizione | Disclaimer

   EN    FR    IT 

 










Sommario :    VFR   VFR Marginale   IFR   IFR Intensivo   IFR Molto Intensivo
Visibilità : 
Base nubi : 
>= 8 km
>= 3000ft
5 / 8 km
1000 / 3000 ft
1500m / 5 km
500 / 1000 ft
800 / 1500m
200 / 500 ft
< 800m
< 200 ft
Simboli :   Temporali  Nebbia  Neve Forte  Precipitazioni Forti  Vento > 20 kt
SIGMETs :   Varie  Temporali  Ghiacco  Turbolenza  Onda orograficha  Ceneri Vulcaniche






- Altitudine del aeroporto : 2945 ft
- Codice IATA : RGS


LEBG - Burgos

ULTIMO METAR :
  • 071400Z AUTO 22007KT 190V260 9999 SCT040 BKN050 17/07 Q1022

METARs OBSOLETI :
  • 071330Z AUTO 20006KT 170V250 9999 FEW036 SCT048 17/09 Q1023
  • 071300Z AUTO 25006KT 160V280 9999 BKN055 BKN065 16/10 Q1023
  • 071230Z AUTO 23006KT 200V260 9999 FEW033 SCT039 BKN060 16/10 Q1023
  • 071200Z AUTO 23006KT 160V270 9999 BKN030 BKN037 BKN045 15/10 Q1023
  • 071130Z AUTO 22006KT 160V260 9999 SCT025 SCT034 BKN049 15/10 Q1023

TAF TAF LEBG
Valido dal 07 a 12 ore il 07 a 21 ore UTC


071100Z 0712/0721 VRB05KT 9999 BKN015 BKN025
PROB40
TEMPO 0712/0721 3000 SHRA SCT030TCU
PROB30
TEMPO 0714/0720 VRB15G25KT 3000 TS SHRA BKN012CB
BECMG 0719/0721 0100 FG VV001



MetMap, La meteo Aeronautica in un colpo d'occhio ! - Copyright ORBIFLY Dicembre 2007 - Disclaimer

ORBIFLY MET'MAP TEAM :

Programmazione e sviluppo : Alexandra Zaïnal
Concezione : Baudouin d'Aumeries
Aiuto per la programmazione : Marc-Olivier Méhu
Supporto tecnico e logistico : Manuel Goepfert
Aiuto per la traduzione : Arnaldo La Scala

Contatto : metmap@orbifly.com




FONTI E CREDITI :

   NOAA